sensor_id;sensor_type;location;lat;lon;timestamp;pressure;altitude;pressure_sealevel;temperature;humidity
43814;BME280;29669;55.706;37.656;2022-12-07T00:00:30;101220.91;;;-7.67;nan
43814;BME280;29669;55.706;37.656;2022-12-07T00:03:18;101226.81;;;-7.71;nan
43814;BME280;29669;55.706;37.656;2022-12-07T00:06:07;101225.16;;;-7.74;nan
43814;BME280;29669;55.706;37.656;2022-12-07T00:08:55;101223.50;;;-7.75;nan
43814;BME280;29669;55.706;37.656;2022-12-07T00:11:44;101227.72;;;-7.78;nan
43814;BME280;29669;55.706;37.656;2022-12-07T00:14:32;101234.47;;;-7.82;nan
43814;BME280;29669;55.706;37.656;2022-12-07T00:17:19;101231.13;;;-7.85;nan
43814;BME280;29669;55.706;37.656;2022-12-07T00:20:07;101233.66;;;-7.87;nan
43814;BME280;29669;55.706;37.656;2022-12-07T00:22:55;101242.91;;;-7.89;nan
43814;BME280;29669;55.706;37.656;2022-12-07T00:25:43;101227.81;;;-7.90;nan
43814;BME280;29669;55.706;37.656;2022-12-07T00:28:31;101232.88;;;-7.92;nan
43814;BME280;29669;55.706;37.656;2022-12-07T00:31:20;101232.03;;;-7.94;nan
43814;BME280;29669;55.706;37.656;2022-12-07T00:34:13;101233.75;;;-7.96;nan
43814;BME280;29669;55.706;37.656;2022-12-07T00:37:01;101227.03;;;-7.97;nan
43814;BME280;29669;55.706;37.656;2022-12-07T00:39:49;101233.78;;;-7.99;nan
43814;BME280;29669;55.706;37.656;2022-12-07T00:42:37;101233.78;;;-8.02;nan
43814;BME280;29669;55.706;37.656;2022-12-07T00:45:25;101233.78;;;-8.02;nan
43814;BME280;29669;55.706;37.656;2022-12-07T00:48:12;101240.50;;;-8.01;nan
43814;BME280;29669;55.706;37.656;2022-12-07T00:51:00;101226.25;;;-8.05;nan
43814;BME280;29669;55.706;37.656;2022-12-07T00:53:48;101240.50;;;-8.04;nan
43814;BME280;29669;55.706;37.656;2022-12-07T00:56:36;101234.66;;;-8.06;nan
43814;BME280;29669;55.706;37.656;2022-12-07T00:59:24;101228.78;;;-8.06;nan
43814;BME280;29669;55.706;37.656;2022-12-07T01:02:12;101227.09;;;-8.06;nan
43814;BME280;29669;55.706;37.656;2022-12-07T01:04:59;101234.66;;;-8.07;nan
43814;BME280;29669;55.706;37.656;2022-12-07T01:07:47;101235.53;;;-8.08;nan
43814;BME280;29669;55.706;37.656;2022-12-07T01:10:35;101233.00;;;-8.07;nan
43814;BME280;29669;55.706;37.656;2022-12-07T01:13:23;101232.19;;;-8.10;nan
43814;BME280;29669;55.706;37.656;2022-12-07T01:16:13;101233.84;;;-8.11;nan
43814;BME280;29669;55.706;37.656;2022-12-07T01:19:01;101234.75;;;-8.16;nan
43814;BME280;29669;55.706;37.656;2022-12-07T01:21:49;101233.13;;;-8.23;nan
43814;BME280;29669;55.706;37.656;2022-12-07T01:24:37;101230.63;;;-8.25;nan
43814;BME280;29669;55.706;37.656;2022-12-07T01:27:24;101228.09;;;-8.25;nan
43814;BME280;29669;55.706;37.656;2022-12-07T01:30:12;101228.97;;;-8.26;nan
43814;BME280;29669;55.706;37.656;2022-12-07T01:33:00;101229.00;;;-8.32;nan
43814;BME280;29669;55.706;37.656;2022-12-07T01:35:48;101227.34;;;-8.36;nan
43814;BME280;29669;55.706;37.656;2022-12-07T01:38:36;101225.69;;;-8.40;nan
43814;BME280;29669;55.706;37.656;2022-12-07T01:41:26;101218.97;;;-8.39;nan
43814;BME280;29669;55.706;37.656;2022-12-07T01:44:27;101215.63;;;-8.37;nan
43814;BME280;29669;55.706;37.656;2022-12-07T01:47:17;101207.22;;;-8.42;nan
43814;BME280;29669;55.706;37.656;2022-12-07T01:50:05;101204.72;;;-8.40;nan
43814;BME280;29669;55.706;37.656;2022-12-07T01:52:54;101202.19;;;-8.42;nan
43814;BME280;29669;55.706;37.656;2022-12-07T01:55:46;101203.88;;;-8.41;nan
43814;BME280;29669;55.706;37.656;2022-12-07T01:58:36;101210.63;;;-8.46;nan
43814;BME280;29669;55.706;37.656;2022-12-07T02:01:24;101212.31;;;-8.48;nan
43814;BME280;29669;55.706;37.656;2022-12-07T02:04:12;101209.81;;;-8.48;nan
43814;BME280;29669;55.706;37.656;2022-12-07T02:07:00;101207.28;;;-8.51;nan
43814;BME280;29669;55.706;37.656;2022-12-07T02:09:48;101209.84;;;-8.54;nan
43814;BME280;29669;55.706;37.656;2022-12-07T02:12:35;101204.81;;;-8.54;nan
43814;BME280;29669;55.706;37.656;2022-12-07T02:22:08;101194.78;;;-8.61;nan
43814;BME280;29669;55.706;37.656;2022-12-07T02:28:37;101191.44;;;-8.62;nan
43814;BME280;29669;55.706;37.656;2022-12-07T02:31:27;101188.09;;;-8.65;nan
43814;BME280;29669;55.706;37.656;2022-12-07T02:34:49;101192.28;;;-8.61;nan
43814;BME280;29669;55.706;37.656;2022-12-07T02:37:48;101191.47;;;-8.65;nan
43814;BME280;29669;55.706;37.656;2022-12-07T02:41:02;101187.25;;;-8.63;nan
43814;BME280;29669;55.706;37.656;2022-12-07T02:43:54;101184.72;;;-8.64;nan
43814;BME280;29669;55.706;37.656;2022-12-07T02:46:49;101188.94;;;-8.63;nan
43814;BME280;29669;55.706;37.656;2022-12-07T02:49:39;101186.41;;;-8.62;nan
43814;BME280;29669;55.706;37.656;2022-12-07T02:52:27;101181.31;;;-8.56;nan
43814;BME280;29669;55.706;37.656;2022-12-07T02:55:19;101182.16;;;-8.54;nan
43814;BME280;29669;55.706;37.656;2022-12-07T02:58:26;101186.28;;;-8.47;nan
43814;BME280;29669;55.706;37.656;2022-12-07T03:01:24;101183.78;;;-8.47;nan
43814;BME280;29669;55.706;37.656;2022-12-07T03:16:20;101182.94;;;-8.49;nan
43814;BME280;29669;55.706;37.656;2022-12-07T03:19:13;101181.31;;;-8.56;nan
43814;BME280;29669;55.706;37.656;2022-12-07T03:22:08;101181.34;;;-8.62;nan
43814;BME280;29669;55.706;37.656;2022-12-07T03:24:59;101174.69;;;-8.68;nan
43814;BME280;29669;55.706;37.656;2022-12-07T03:27:59;101180.59;;;-8.73;nan
43814;BME280;29669;55.706;37.656;2022-12-07T03:30:56;101183.97;;;-8.77;nan
43814;BME280;29669;55.706;37.656;2022-12-07T03:37:02;101189.00;;;-8.82;nan
43814;BME280;29669;55.706;37.656;2022-12-07T03:40:11;101176.47;;;-8.85;nan
43814;BME280;29669;55.706;37.656;2022-12-07T03:43:02;101180.69;;;-8.93;nan
43814;BME280;29669;55.706;37.656;2022-12-07T03:52:42;101182.44;;;-9.05;nan
43814;BME280;29669;55.706;37.656;2022-12-07T03:55:35;101175.75;;;-9.09;nan
43814;BME280;29669;55.706;37.656;2022-12-07T03:58:24;101174.91;;;-9.10;nan
43814;BME280;29669;55.706;37.656;2022-12-07T04:01:12;101175.72;;;-9.06;nan
43814;BME280;29669;55.706;37.656;2022-12-07T04:04:00;101170.69;;;-9.03;nan
43814;BME280;29669;55.706;37.656;2022-12-07T04:06:48;101171.53;;;-9.03;nan
43814;BME280;29669;55.706;37.656;2022-12-07T04:09:36;101175.72;;;-9.06;nan
43814;BME280;29669;55.706;37.656;2022-12-07T04:12:23;101168.19;;;-9.08;nan
43814;BME280;29669;55.706;37.656;2022-12-07T04:15:11;101171.56;;;-9.09;nan
43814;BME280;29669;55.706;37.656;2022-12-07T04:17:59;101169.06;;;-9.10;nan
43814;BME280;29669;55.706;37.656;2022-12-07T04:20:47;101164.03;;;-9.10;nan
43814;BME280;29669;55.706;37.656;2022-12-07T04:23:35;101168.22;;;-9.12;nan
43814;BME280;29669;55.706;37.656;2022-12-07T04:26:22;101167.38;;;-9.14;nan
43814;BME280;29669;55.706;37.656;2022-12-07T04:29:10;101166.53;;;-9.15;nan
43814;BME280;29669;55.706;37.656;2022-12-07T04:31:58;101167.38;;;-9.17;nan
43814;BME280;29669;55.706;37.656;2022-12-07T04:34:46;101162.38;;;-9.20;nan
43814;BME280;29669;55.706;37.656;2022-12-07T04:37:37;101166.56;;;-9.18;nan
43814;BME280;29669;55.706;37.656;2022-12-07T04:40:27;101163.22;;;-9.18;nan
43814;BME280;29669;55.706;37.656;2022-12-07T04:43:14;101159.03;;;-9.21;nan
43814;BME280;29669;55.706;37.656;2022-12-07T04:46:02;101150.69;;;-9.27;nan
43814;BME280;29669;55.706;37.656;2022-12-07T04:48:51;101154.03;;;-9.28;nan
43814;BME280;29669;55.706;37.656;2022-12-07T04:51:40;101154.88;;;-9.32;nan
43814;BME280;29669;55.706;37.656;2022-12-07T04:54:28;101158.22;;;-9.32;nan
43814;BME280;29669;55.706;37.656;2022-12-07T04:57:16;101150.72;;;-9.35;nan
43814;BME280;29669;55.706;37.656;2022-12-07T05:00:04;101162.41;;;-9.32;nan
43814;BME280;29669;55.706;37.656;2022-12-07T05:02:53;101168.25;;;-9.29;nan
43814;BME280;29669;55.706;37.656;2022-12-07T05:05:41;101159.03;;;-9.27;nan
43814;BME280;29669;55.706;37.656;2022-12-07T05:08:29;101161.56;;;-9.28;nan
43814;BME280;29669;55.706;37.656;2022-12-07T05:11:17;101157.38;;;-9.31;nan
43814;BME280;29669;55.706;37.656;2022-12-07T05:14:23;101162.44;;;-9.35;nan
43814;BME280;29669;55.706;37.656;2022-12-07T05:17:11;101161.59;;;-9.34;nan
43814;BME280;29669;55.706;37.656;2022-12-07T05:19:59;101162.44;;;-9.29;nan
43814;BME280;29669;55.706;37.656;2022-12-07T05:22:49;101162.38;;;-9.25;nan
43814;BME280;29669;55.706;37.656;2022-12-07T05:25:37;101157.38;;;-9.26;nan
43814;BME280;29669;55.706;37.656;2022-12-07T05:28:25;101159.91;;;-9.28;nan
43814;BME280;29669;55.706;37.656;2022-12-07T05:31:13;101155.72;;;-9.27;nan
43814;BME280;29669;55.706;37.656;2022-12-07T05:34:01;101159.06;;;-9.28;nan
43814;BME280;29669;55.706;37.656;2022-12-07T05:36:49;101156.56;;;-9.30;nan
43814;BME280;29669;55.706;37.656;2022-12-07T05:39:37;101152.38;;;-9.29;nan
43814;BME280;29669;55.706;37.656;2022-12-07T05:42:28;101149.03;;;-9.31;nan
43814;BME280;29669;55.706;37.656;2022-12-07T05:45:16;101160.72;;;-9.30;nan
43814;BME280;29669;55.706;37.656;2022-12-07T05:48:04;101153.19;;;-9.27;nan
43814;BME280;29669;55.706;37.656;2022-12-07T05:50:52;101152.34;;;-9.28;nan
43814;BME280;29669;55.706;37.656;2022-12-07T05:53:40;101153.19;;;-9.30;nan
43814;BME280;29669;55.706;37.656;2022-12-07T05:56:28;101156.53;;;-9.28;nan
43814;BME280;29669;55.706;37.656;2022-12-07T05:59:16;101163.22;;;-9.24;nan
43814;BME280;29669;55.706;37.656;2022-12-07T06:02:13;101155.66;;;-9.21;nan
43814;BME280;29669;55.706;37.656;2022-12-07T06:05:01;101145.63;;;-9.24;nan
43814;BME280;29669;55.706;37.656;2022-12-07T06:07:49;101152.31;;;-9.19;nan
43814;BME280;29669;55.706;37.656;2022-12-07T06:10:37;101154.00;;;-9.16;nan
43814;BME280;29669;55.706;37.656;2022-12-07T06:13:25;101159.84;;;-9.13;nan
43814;BME280;29669;55.706;37.656;2022-12-07T06:16:13;101154.78;;;-9.11;nan
43814;BME280;29669;55.706;37.656;2022-12-07T06:19:01;101157.31;;;-9.11;nan
43814;BME280;29669;55.706;37.656;2022-12-07T06:21:49;101157.28;;;-9.08;nan
43814;BME280;29669;55.706;37.656;2022-12-07T06:24:37;101151.41;;;-9.01;nan
43814;BME280;29669;55.706;37.656;2022-12-07T06:27:25;101148.84;;;-8.97;nan
43814;BME280;29669;55.706;37.656;2022-12-07T06:30:13;101137.94;;;-8.93;nan
43814;BME280;29669;55.706;37.656;2022-12-07T06:33:01;101146.28;;;-8.86;nan
43814;BME280;29669;55.706;37.656;2022-12-07T06:35:49;101144.56;;;-8.80;nan
43814;BME280;29669;55.706;37.656;2022-12-07T06:38:37;101144.53;;;-8.75;nan
43814;BME280;29669;55.706;37.656;2022-12-07T06:41:25;101138.63;;;-8.68;nan
43814;BME280;29669;55.706;37.656;2022-12-07T06:44:13;101134.41;;;-8.63;nan
43814;BME280;29669;55.706;37.656;2022-12-07T06:47:01;101148.56;;;-8.50;nan
43814;BME280;29669;55.706;37.656;2022-12-07T06:50:09;101141.00;;;-8.48;nan
43814;BME280;29669;55.706;37.656;2022-12-07T06:52:57;101143.47;;;-8.44;nan
43814;BME280;29669;55.706;37.656;2022-12-07T06:55:45;101143.41;;;-8.33;nan
43814;BME280;29669;55.706;37.656;2022-12-07T06:58:33;101138.34;;;-8.30;nan
43814;BME280;29669;55.706;37.656;2022-12-07T07:01:21;101145.88;;;-8.27;nan
43814;BME280;29669;55.706;37.656;2022-12-07T07:04:09;101149.94;;;-8.16;nan
43814;BME280;29669;55.706;37.656;2022-12-07T07:06:57;101145.75;;;-8.14;nan
43814;BME280;29669;55.706;37.656;2022-12-07T07:09:46;101151.53;;;-8.06;nan
43814;BME280;29669;55.706;37.656;2022-12-07T07:12:34;101149.03;;;-8.04;nan
43814;BME280;29669;55.706;37.656;2022-12-07T07:15:22;101153.97;;;-7.98;nan
43814;BME280;29669;55.706;37.656;2022-12-07T07:18:10;101150.56;;;-7.93;nan
43814;BME280;29669;55.706;37.656;2022-12-07T07:20:58;101154.72;;;-7.86;nan
43814;BME280;29669;55.706;37.656;2022-12-07T07:23:46;101152.16;;;-7.83;nan
43814;BME280;29669;55.706;37.656;2022-12-07T07:26:34;101152.94;;;-7.78;nan
43814;BME280;29669;55.706;37.656;2022-12-07T07:29:22;101139.50;;;-7.77;nan
43814;BME280;29669;55.706;37.656;2022-12-07T07:32:09;101145.28;;;-7.67;nan
43814;BME280;29669;55.706;37.656;2022-12-07T07:34:57;101141.03;;;-7.62;nan
43814;BME280;29669;55.706;37.656;2022-12-07T07:37:45;101140.13;;;-7.58;nan
43814;BME280;29669;55.706;37.656;2022-12-07T07:40:33;101129.19;;;-7.54;nan
43814;BME280;29669;55.706;37.656;2022-12-07T07:43:21;101135.00;;;-7.50;nan
43814;BME280;29669;55.706;37.656;2022-12-07T07:46:09;101127.41;;;-7.47;nan
43814;BME280;29669;55.706;37.656;2022-12-07T07:48:58;101140.81;;;-7.42;nan
43814;BME280;29669;55.706;37.656;2022-12-07T07:51:46;101116.47;;;-7.45;nan
43814;BME280;29669;55.706;37.656;2022-12-07T07:54:34;101123.19;;;-7.45;nan
43814;BME280;29669;55.706;37.656;2022-12-07T07:57:21;101128.13;;;-7.38;nan
43814;BME280;29669;55.706;37.656;2022-12-07T08:00:14;101136.47;;;-7.31;nan
43814;BME280;29669;55.706;37.656;2022-12-07T08:03:02;101130.50;;;-7.24;nan
43814;BME280;29669;55.706;37.656;2022-12-07T08:05:50;101123.75;;;-7.22;nan
43814;BME280;29669;55.706;37.656;2022-12-07T08:08:38;101130.38;;;-7.15;nan
43814;BME280;29669;55.706;37.656;2022-12-07T08:11:26;101121.97;;;-7.14;nan
43814;BME280;29669;55.706;37.656;2022-12-07T08:14:14;101115.22;;;-7.15;nan
43814;BME280;29669;55.706;37.656;2022-12-07T08:17:02;101112.63;;;-7.09;nan
43814;BME280;29669;55.706;37.656;2022-12-07T08:19:50;101118.50;;;-7.07;nan
43814;BME280;29669;55.706;37.656;2022-12-07T08:22:38;101117.59;;;-7.03;nan
43814;BME280;29669;55.706;37.656;2022-12-07T08:25:27;101116.75;;;-7.01;nan
43814;BME280;29669;55.706;37.656;2022-12-07T08:28:15;101113.31;;;-6.98;nan
43814;BME280;29669;55.706;37.656;2022-12-07T08:31:08;101111.66;;;-6.99;nan
43814;BME280;29669;55.706;37.656;2022-12-07T08:33:57;101107.44;;;-6.97;nan
43814;BME280;29669;55.706;37.656;2022-12-07T08:36:46;101106.56;;;-6.95;nan
43814;BME280;29669;55.706;37.656;2022-12-07T08:39:33;101111.53;;;-6.90;nan
43814;BME280;29669;55.706;37.656;2022-12-07T08:42:21;101107.34;;;-6.90;nan
43814;BME280;29669;55.706;37.656;2022-12-07T08:45:12;101104.75;;;-6.85;nan
43814;BME280;29669;55.706;37.656;2022-12-07T08:48:09;101093.75;;;-6.80;nan
43814;BME280;29669;55.706;37.656;2022-12-07T08:51:01;101102.94;;;-6.76;nan
43814;BME280;29669;55.706;37.656;2022-12-07T08:53:50;101089.38;;;-6.72;nan
43814;BME280;29669;55.706;37.656;2022-12-07T08:56:40;101090.16;;;-6.66;nan
43814;BME280;29669;55.706;37.656;2022-12-07T08:59:28;101083.38;;;-6.63;nan
43814;BME280;29669;55.706;37.656;2022-12-07T09:02:16;101087.47;;;-6.56;nan
43814;BME280;29669;55.706;37.656;2022-12-07T09:05:04;101079.00;;;-6.52;nan
43814;BME280;29669;55.706;37.656;2022-12-07T09:07:57;101077.28;;;-6.50;nan
43814;BME280;29669;55.706;37.656;2022-12-07T09:10:47;101083.97;;;-6.49;nan
43814;BME280;29669;55.706;37.656;2022-12-07T09:13:35;101075.50;;;-6.45;nan
43814;BME280;29669;55.706;37.656;2022-12-07T09:16:23;101070.44;;;-6.43;nan
43814;BME280;29669;55.706;37.656;2022-12-07T09:19:11;101064.53;;;-6.42;nan
43814;BME280;29669;55.706;37.656;2022-12-07T09:21:59;101069.47;;;-6.36;nan
43814;BME280;29669;55.706;37.656;2022-12-07T09:24:47;101067.66;;;-6.30;nan
43814;BME280;29669;55.706;37.656;2022-12-07T09:27:34;101059.00;;;-6.17;nan
43814;BME280;29669;55.706;37.656;2022-12-07T09:30:23;101050.09;;;-5.90;nan
43814;BME280;29669;55.706;37.656;2022-12-07T09:33:11;101043.75;;;-5.69;nan
43814;BME280;29669;55.706;37.656;2022-12-07T09:35:59;101050.19;;;-5.53;nan
43814;BME280;29669;55.706;37.656;2022-12-07T09:38:46;101038.94;;;-5.40;nan
43814;BME280;29669;55.706;37.656;2022-12-07T09:41:41;101039.50;;;-5.28;nan
43814;BME280;29669;55.706;37.656;2022-12-07T09:44:31;101041.16;;;-5.25;nan
43814;BME280;29669;55.706;37.656;2022-12-07T09:47:19;101035.84;;;-5.13;nan
43814;BME280;29669;55.706;37.656;2022-12-07T09:53:13;101020.34;;;-5.00;nan
43814;BME280;29669;55.706;37.656;2022-12-07T09:58:57;101013.84;;;-3.79;nan
43814;BME280;29669;55.706;37.656;2022-12-07T10:01:47;101026.53;;;-1.47;nan
43814;BME280;29669;55.706;37.656;2022-12-07T10:04:37;101015.91;;;0.29;nan
43814;BME280;29669;55.706;37.656;2022-12-07T10:10:24;101003.50;;;-0.18;nan
43814;BME280;29669;55.706;37.656;2022-12-07T10:13:15;100998.75;;;1.22;nan
43814;BME280;29669;55.706;37.656;2022-12-07T10:16:27;100998.16;;;1.17;nan
43814;BME280;29669;55.706;37.656;2022-12-07T10:22:13;101010.75;;;-0.49;nan
43814;BME280;29669;55.706;37.656;2022-12-07T10:25:08;101001.94;;;-1.25;nan
43814;BME280;29669;55.706;37.656;2022-12-07T10:28:02;100996.97;;;-2.21;nan
43814;BME280;29669;55.706;37.656;2022-12-07T10:31:02;101018.25;;;-3.00;nan
43814;BME280;29669;55.706;37.656;2022-12-07T10:33:57;100998.25;;;-3.66;nan
43814;BME280;29669;55.706;37.656;2022-12-07T10:36:48;101010.47;;;-4.09;nan
43814;BME280;29669;55.706;37.656;2022-12-07T10:39:55;101008.88;;;-4.45;nan
43814;BME280;29669;55.706;37.656;2022-12-07T10:43:00;101012.91;;;-4.72;nan
43814;BME280;29669;55.706;37.656;2022-12-07T10:46:20;101005.78;;;-4.92;nan
43814;BME280;29669;55.706;37.656;2022-12-07T11:05:01;100981.91;;;-5.53;nan
43814;BME280;29669;55.706;37.656;2022-12-07T11:08:13;100982.91;;;-5.62;nan
43814;BME280;29669;55.706;37.656;2022-12-07T11:11:12;100977.19;;;-5.70;nan
43814;BME280;29669;55.706;37.656;2022-12-07T11:20:15;100961.72;;;-4.51;nan
43814;BME280;29669;55.706;37.656;2022-12-07T11:26:07;100957.72;;;-4.59;nan
43814;BME280;29669;55.706;37.656;2022-12-07T11:37:59;100953.19;;;-5.51;nan
43814;BME280;29669;55.706;37.656;2022-12-07T11:40:51;100959.34;;;-5.62;nan
43814;BME280;29669;55.706;37.656;2022-12-07T11:46:49;100955.53;;;-5.82;nan
43814;BME280;29669;55.706;37.656;2022-12-07T11:53:49;100940.69;;;-5.95;nan
43814;BME280;29669;55.706;37.656;2022-12-07T11:56:14;100940.03;;;-6.05;nan
43814;BME280;29669;55.706;37.656;2022-12-07T11:59:19;100946.00;;;-6.09;nan
43814;BME280;29669;55.706;37.656;2022-12-07T12:02:15;100936.13;;;-6.19;nan
43814;BME280;29669;55.706;37.656;2022-12-07T12:05:16;100939.56;;;-6.23;nan
43814;BME280;29669;55.706;37.656;2022-12-07T12:08:45;100929.56;;;-6.29;nan
43814;BME280;29669;55.706;37.656;2022-12-07T12:15:31;100918.88;;;-6.42;nan
43814;BME280;29669;55.706;37.656;2022-12-07T12:21:27;100919.16;;;-6.57;nan
43814;BME280;29669;55.706;37.656;2022-12-07T12:24:19;100924.25;;;-6.60;nan
43814;BME280;29669;55.706;37.656;2022-12-07T12:27:18;100916.75;;;-6.63;nan
43814;BME280;29669;55.706;37.656;2022-12-07T12:33:27;100921.19;;;-6.77;nan
43814;BME280;29669;55.706;37.656;2022-12-07T12:41:56;100924.03;;;-6.94;nan
43814;BME280;29669;55.706;37.656;2022-12-07T12:48:48;100915.81;;;-7.05;nan
43814;BME280;29669;55.706;37.656;2022-12-07T12:51:44;100922.63;;;-7.11;nan
43814;BME280;29669;55.706;37.656;2022-12-07T12:54:36;100919.34;;;-7.16;nan
43814;BME280;29669;55.706;37.656;2022-12-07T12:57:27;100914.50;;;-7.28;nan
43814;BME280;29669;55.706;37.656;2022-12-07T13:00:18;100917.94;;;-7.32;nan
43814;BME280;29669;55.706;37.656;2022-12-07T13:03:22;100917.97;;;-7.35;nan
43814;BME280;29669;55.706;37.656;2022-12-07T13:09:21;100917.38;;;-7.49;nan
43814;BME280;29669;55.706;37.656;2022-12-07T13:12:13;100911.63;;;-7.60;nan
43814;BME280;29669;55.706;37.656;2022-12-07T13:15:02;100915.09;;;-7.68;nan
43814;BME280;29669;55.706;37.656;2022-12-07T13:17:57;100921.00;;;-7.68;nan
43814;BME280;29669;55.706;37.656;2022-12-07T13:20:48;100919.38;;;-7.73;nan
43814;BME280;29669;55.706;37.656;2022-12-07T13:26:42;100911.13;;;-7.84;nan
43814;BME280;29669;55.706;37.656;2022-12-07T13:29:36;100910.31;;;-7.87;nan
43814;BME280;29669;55.706;37.656;2022-12-07T13:32:27;100909.56;;;-7.94;nan
43814;BME280;29669;55.706;37.656;2022-12-07T13:35:33;100911.22;;;-7.93;nan
43814;BME280;29669;55.706;37.656;2022-12-07T13:38:35;100907.91;;;-7.95;nan
43814;BME280;29669;55.706;37.656;2022-12-07T13:41:27;100905.44;;;-7.98;nan
43814;BME280;29669;55.706;37.656;2022-12-07T13:44:16;100902.91;;;-7.98;nan
43814;BME280;29669;55.706;37.656;2022-12-07T13:47:12;100900.44;;;-8.01;nan
43814;BME280;29669;55.706;37.656;2022-12-07T13:50:01;100902.19;;;-8.07;nan
43814;BME280;29669;55.706;37.656;2022-12-07T13:52:50;100901.41;;;-8.11;nan
43814;BME280;29669;55.706;37.656;2022-12-07T13:55:44;100901.34;;;-8.08;nan
43814;BME280;29669;55.706;37.656;2022-12-07T13:58:39;100896.38;;;-8.12;nan
43814;BME280;29669;55.706;37.656;2022-12-07T14:01:28;100898.94;;;-8.17;nan
43814;BME280;29669;55.706;37.656;2022-12-07T14:07:28;100898.94;;;-8.15;nan
43814;BME280;29669;55.706;37.656;2022-12-07T14:10:28;100898.09;;;-8.17;nan
43814;BME280;29669;55.706;37.656;2022-12-07T14:16:25;100891.44;;;-8.20;nan
43814;BME280;29669;55.706;37.656;2022-12-07T14:19:45;100898.19;;;-8.22;nan
43814;BME280;29669;55.706;37.656;2022-12-07T14:22:37;100888.19;;;-8.26;nan
43814;BME280;29669;55.706;37.656;2022-12-07T14:25:26;100894.03;;;-8.24;nan
43814;BME280;29669;55.706;37.656;2022-12-07T14:28:47;100898.09;;;-8.17;nan
43814;BME280;29669;55.706;37.656;2022-12-07T14:31:35;100893.19;;;-8.25;nan
43814;BME280;29669;55.706;37.656;2022-12-07T14:34:23;100894.09;;;-8.27;nan
43814;BME280;29669;55.706;37.656;2022-12-07T14:37:11;100886.56;;;-8.30;nan
43814;BME280;29669;55.706;37.656;2022-12-07T14:39:59;100884.88;;;-8.30;nan
43814;BME280;29669;55.706;37.656;2022-12-07T14:42:51;100884.84;;;-8.28;nan
43814;BME280;29669;55.706;37.656;2022-12-07T14:45:41;100883.19;;;-8.29;nan
43814;BME280;29669;55.706;37.656;2022-12-07T14:48:29;100866.44;;;-8.32;nan
43814;BME280;29669;55.706;37.656;2022-12-07T14:51:39;100874.00;;;-8.32;nan
43814;BME280;29669;55.706;37.656;2022-12-07T14:54:48;100877.41;;;-8.36;nan
43814;BME280;29669;55.706;37.656;2022-12-07T14:57:36;100869.00;;;-8.35;nan
43814;BME280;29669;55.706;37.656;2022-12-07T15:00:26;100874.88;;;-8.36;nan
43814;BME280;29669;55.706;37.656;2022-12-07T15:03:15;100870.72;;;-8.38;nan
43814;BME280;29669;55.706;37.656;2022-12-07T15:06:06;100868.22;;;-8.40;nan
43814;BME280;29669;55.706;37.656;2022-12-07T15:08:54;100866.56;;;-8.44;nan
43814;BME280;29669;55.706;37.656;2022-12-07T15:11:42;100869.13;;;-8.45;nan
43814;BME280;29669;55.706;37.656;2022-12-07T15:14:31;100866.59;;;-8.45;nan
43814;BME280;29669;55.706;37.656;2022-12-07T15:17:18;100857.44;;;-8.48;nan
43814;BME280;29669;55.706;37.656;2022-12-07T15:20:17;100860.75;;;-8.46;nan
43814;BME280;29669;55.706;37.656;2022-12-07T15:23:05;100854.06;;;-8.48;nan
43814;BME280;29669;55.706;37.656;2022-12-07T15:25:53;100864.06;;;-8.42;nan
43814;BME280;29669;55.706;37.656;2022-12-07T15:28:41;100858.13;;;-8.40;nan
43814;BME280;29669;55.706;37.656;2022-12-07T15:31:29;100853.09;;;-8.40;nan
43814;BME280;29669;55.706;37.656;2022-12-07T15:34:40;100853.09;;;-8.37;nan
43814;BME280;29669;55.706;37.656;2022-12-07T15:37:39;100854.75;;;-8.36;nan
43814;BME280;29669;55.706;37.656;2022-12-07T15:40:26;100842.16;;;-8.36;nan
43814;BME280;29669;55.706;37.656;2022-12-07T15:43:14;100849.69;;;-8.33;nan
43814;BME280;29669;55.706;37.656;2022-12-07T15:46:20;100832.91;;;-8.34;nan
43814;BME280;29669;55.706;37.656;2022-12-07T15:49:17;100834.50;;;-8.28;nan
43814;BME280;29669;55.706;37.656;2022-12-07T15:52:05;100836.19;;;-8.27;nan
43814;BME280;29669;55.706;37.656;2022-12-07T15:54:53;100837.88;;;-8.28;nan
43814;BME280;29669;55.706;37.656;2022-12-07T15:57:41;100831.97;;;-8.28;nan
43814;BME280;29669;55.706;37.656;2022-12-07T16:00:29;100825.28;;;-8.28;nan
43814;BME280;29669;55.706;37.656;2022-12-07T16:03:17;100819.41;;;-8.30;nan
43814;BME280;29669;55.706;37.656;2022-12-07T16:06:06;100822.81;;;-8.31;nan
43814;BME280;29669;55.706;37.656;2022-12-07T16:08:53;100822.75;;;-8.28;nan
43814;BME280;29669;55.706;37.656;2022-12-07T16:11:42;100823.63;;;-8.29;nan
43814;BME280;29669;55.706;37.656;2022-12-07T16:14:29;100826.13;;;-8.29;nan
43814;BME280;29669;55.706;37.656;2022-12-07T16:17:19;100817.78;;;-8.34;nan
43814;BME280;29669;55.706;37.656;2022-12-07T16:20:09;100821.19;;;-8.38;nan
43814;BME280;29669;55.706;37.656;2022-12-07T16:22:57;100822.88;;;-8.37;nan
43814;BME280;29669;55.706;37.656;2022-12-07T16:25:45;100827.91;;;-8.37;nan
43814;BME280;29669;55.706;37.656;2022-12-07T16:28:33;100812.88;;;-8.43;nan
43814;BME280;29669;55.706;37.656;2022-12-07T16:31:23;100820.38;;;-8.40;nan
43814;BME280;29669;55.706;37.656;2022-12-07T16:34:12;100817.06;;;-8.40;nan
43814;BME280;29669;55.706;37.656;2022-12-07T16:37:00;100812.00;;;-8.39;nan
43814;BME280;29669;55.706;37.656;2022-12-07T16:39:51;100812.81;;;-8.37;nan
43814;BME280;29669;55.706;37.656;2022-12-07T16:42:39;100807.72;;;-8.34;nan
43814;BME280;29669;55.706;37.656;2022-12-07T16:45:30;100797.72;;;-8.37;nan
43814;BME280;29669;55.706;37.656;2022-12-07T16:48:18;100809.44;;;-8.36;nan
43814;BME280;29669;55.706;37.656;2022-12-07T16:51:08;100807.75;;;-8.35;nan
43814;BME280;29669;55.706;37.656;2022-12-07T16:53:56;100803.59;;;-8.36;nan
43814;BME280;29669;55.706;37.656;2022-12-07T16:56:44;100801.13;;;-8.41;nan
43814;BME280;29669;55.706;37.656;2022-12-07T16:59:32;100796.03;;;-8.38;nan
43814;BME280;29669;55.706;37.656;2022-12-07T17:02:20;100799.38;;;-8.37;nan